createdAt,value
2023-05-18T00:01:14.521Z,94802.72
2023-05-18T00:03:42.352Z,94799.28
2023-05-18T00:06:10.382Z,94789.00
2023-05-18T00:08:38.589Z,94783.78
2023-05-18T00:11:06.514Z,94796.72
2023-05-18T00:13:33.907Z,94798.03
2023-05-18T00:16:00.970Z,94791.41
2023-05-18T00:18:28.242Z,94778.75
2023-05-18T00:21:01.073Z,94795.41
2023-05-18T00:23:33.157Z,94782.69
2023-05-18T00:26:01.426Z,94782.53
2023-05-18T00:28:29.154Z,94787.00
2023-05-18T00:30:56.451Z,94789.94
2023-05-18T00:33:23.633Z,94792.03
2023-05-18T00:35:50.607Z,94789.16
2023-05-18T00:38:17.919Z,94790.72
2023-05-18T00:40:44.681Z,94792.31
2023-05-18T00:43:12.403Z,94786.59
2023-05-18T00:45:39.657Z,94780.84
2023-05-18T00:48:07.278Z,94785.69
2023-05-18T00:50:34.247Z,94792.13
2023-05-18T00:53:01.132Z,94781.47
2023-05-18T00:55:28.672Z,94782.03
2023-05-18T00:57:57.116Z,94775.38
2023-05-18T01:00:24.428Z,94774.94
2023-05-18T01:02:51.924Z,94766.47
2023-05-18T01:05:20.236Z,94775.34
2023-05-18T01:07:48.122Z,94769.78
2023-05-18T01:10:17.408Z,94774.66
2023-05-18T01:13:01.474Z,94769.03
2023-05-18T01:15:35.672Z,94773.13
2023-05-18T01:18:21.985Z,94770.81
2023-05-18T01:21:04.327Z,94776.69
2023-05-18T01:23:46.162Z,94766.97
2023-05-18T01:26:17.647Z,94761.06
2023-05-18T01:28:46.827Z,94760.78
2023-05-18T01:31:16.448Z,94756.34
2023-05-18T01:33:44.701Z,94765.66
2023-05-18T01:36:11.554Z,94752.47
2023-05-18T01:38:40.131Z,94736.34
2023-05-18T01:41:25.112Z,94758.47
2023-05-18T01:44:17.441Z,94758.28
2023-05-18T01:46:53.393Z,94762.72
2023-05-18T01:49:32.053Z,94757.38
2023-05-18T01:52:04.393Z,94736.91
2023-05-18T01:54:32.299Z,94749.47
2023-05-18T01:57:01.169Z,94744.44
2023-05-18T01:59:28.351Z,94746.81
2023-05-18T02:02:00.619Z,94750.16
2023-05-18T02:04:28.565Z,94743.84
2023-05-18T02:06:55.631Z,94744.47
2023-05-18T02:09:22.969Z,94742.94
2023-05-18T02:11:50.772Z,94737.88
2023-05-18T02:14:17.600Z,94742.44
2023-05-18T02:16:47.334Z,94735.56
2023-05-18T02:19:18.503Z,94735.22
2023-05-18T02:21:45.816Z,94746.06
2023-05-18T02:24:12.898Z,94734.94
2023-05-18T02:26:40.160Z,94727.75
2023-05-18T02:29:06.986Z,94733.06
2023-05-18T02:31:33.904Z,94732.94
2023-05-18T02:34:01.506Z,94745.25
2023-05-18T02:36:28.363Z,94736.44
2023-05-18T02:38:55.230Z,94731.31
2023-05-18T02:41:22.846Z,94729.50
2023-05-18T02:43:49.549Z,94719.78
2023-05-18T02:46:16.586Z,94719.56
2023-05-18T02:48:45.889Z,94725.09
2023-05-18T02:51:13.039Z,94722.91
2023-05-18T02:53:40.282Z,94730.00
2023-05-18T02:56:12.385Z,94727.91
2023-05-18T02:59:00.849Z,94722.44
2023-05-18T03:01:34.881Z,94714.00
2023-05-18T03:04:01.865Z,94726.69
2023-05-18T03:06:30.396Z,94715.25
2023-05-18T03:08:57.713Z,94717.38
2023-05-18T03:11:32.266Z,94722.34
2023-05-18T03:13:58.999Z,94718.69
2023-05-18T03:16:28.540Z,94715.75
2023-05-18T03:18:59.002Z,94718.72
2023-05-18T03:21:34.092Z,94716.91
2023-05-18T03:24:02.770Z,94714.53
2023-05-18T03:26:31.161Z,94713.50
2023-05-18T03:28:58.692Z,94706.09
2023-05-18T03:31:26.369Z,94717.47
2023-05-18T03:33:54.574Z,94710.31
2023-05-18T03:36:22.613Z,94708.25
2023-05-18T03:38:49.527Z,94707.47
2023-05-18T03:41:16.630Z,94708.56
2023-05-18T03:43:43.302Z,94709.03
2023-05-18T03:46:11.494Z,94712.97
2023-05-18T03:48:38.233Z,94704.19
2023-05-18T03:51:06.115Z,94710.56
2023-05-18T03:53:33.937Z,94705.53
2023-05-18T03:56:00.723Z,94706.84
2023-05-18T03:58:27.654Z,94708.38
2023-05-18T04:00:54.549Z,94711.81
2023-05-18T04:03:21.673Z,94706.06
2023-05-18T04:05:49.763Z,94712.34
2023-05-18T04:08:16.715Z,94715.22
2023-05-18T04:10:44.757Z,94713.84
2023-05-18T04:13:12.440Z,94714.06
2023-05-18T04:15:39.327Z,94722.84
2023-05-18T04:18:06.716Z,94717.56
2023-05-18T04:20:33.613Z,94716.28
2023-05-18T04:23:00.951Z,94720.19
2023-05-18T04:25:28.400Z,94717.25
2023-05-18T04:27:56.342Z,94729.63
2023-05-18T04:30:27.357Z,94722.56
2023-05-18T04:32:54.684Z,94721.19
2023-05-18T04:35:21.672Z,94722.16
2023-05-18T04:37:48.392Z,94719.38
2023-05-18T04:40:17.722Z,94727.75
2023-05-18T04:42:47.697Z,94738.63
2023-05-18T04:45:19.428Z,94726.34
2023-05-18T04:47:53.460Z,94732.88
2023-05-18T04:50:23.914Z,94731.97
2023-05-18T04:52:51.816Z,94736.63
2023-05-18T04:55:28.961Z,94726.78
2023-05-18T04:58:15.035Z,94733.06
2023-05-18T05:00:43.203Z,94737.47
2023-05-18T05:03:10.858Z,94734.66
2023-05-18T05:05:37.723Z,94735.50
2023-05-18T05:08:06.630Z,94734.50
2023-05-18T05:10:33.310Z,94732.13
2023-05-18T05:12:59.989Z,94735.59
2023-05-18T05:15:26.911Z,94740.38
2023-05-18T05:17:54.566Z,94720.47
2023-05-18T05:20:21.796Z,94739.84
2023-05-18T05:22:48.636Z,94735.13
2023-05-18T05:25:21.173Z,94744.22
2023-05-18T05:27:47.893Z,94741.81
2023-05-18T05:30:18.245Z,94737.00
2023-05-18T05:32:45.079Z,94745.19
2023-05-18T05:35:11.844Z,94735.75
2023-05-18T05:37:38.865Z,94742.75
2023-05-18T05:40:06.754Z,94725.50
2023-05-18T05:42:38.762Z,94738.91
2023-05-18T05:45:06.112Z,94734.53
2023-05-18T05:47:38.103Z,94739.06
2023-05-18T05:50:06.046Z,94743.84
2023-05-18T05:52:34.199Z,94738.25
2023-05-18T05:55:01.951Z,94749.09
2023-05-18T05:57:29.941Z,94740.50
2023-05-18T05:59:56.704Z,94751.72
2023-05-18T06:02:23.529Z,94748.09
2023-05-18T06:04:50.438Z,94751.94
2023-05-18T06:07:17.660Z,94755.13
2023-05-18T06:09:44.362Z,94758.94
2023-05-18T06:12:11.433Z,94752.69
2023-05-18T06:14:38.796Z,94760.88
2023-05-18T06:17:05.732Z,94762.63
2023-05-18T06:19:33.432Z,94767.84
2023-05-18T06:22:00.173Z,94762.03
2023-05-18T06:24:29.967Z,94771.16
2023-05-18T06:27:16.237Z,94768.03
2023-05-18T06:30:18.510Z,94769.59
2023-05-18T06:32:59.511Z,94768.31
2023-05-18T06:35:26.398Z,94759.75
2023-05-18T06:37:53.093Z,94758.47
2023-05-18T06:40:19.976Z,94760.31
2023-05-18T06:42:46.898Z,94763.91
2023-05-18T06:45:24.847Z,94759.19
2023-05-18T06:47:54.571Z,94768.38
2023-05-18T06:50:21.430Z,94770.88
2023-05-18T06:52:48.452Z,94766.91
2023-05-18T06:55:15.503Z,94759.78
2023-05-18T06:57:42.528Z,94760.16
2023-05-18T07:00:10.568Z,94770.03
2023-05-18T07:02:37.507Z,94767.16
2023-05-18T07:05:09.178Z,94770.06
2023-05-18T07:07:37.811Z,94780.13
2023-05-18T07:10:05.258Z,94773.56
2023-05-18T07:12:31.978Z,94778.53
2023-05-18T07:14:58.727Z,94783.75
2023-05-18T07:17:25.489Z,94771.94
2023-05-18T07:19:52.193Z,94780.44
2023-05-18T07:22:18.867Z,94769.31
2023-05-18T07:24:45.635Z,94774.91
2023-05-18T07:27:12.434Z,94768.56
2023-05-18T07:29:39.232Z,94773.78
2023-05-18T07:32:05.948Z,94763.75
2023-05-18T07:34:32.649Z,94759.56
2023-05-18T07:36:59.353Z,94766.41
2023-05-18T07:39:29.422Z,94774.78
2023-05-18T07:41:56.486Z,94777.34
2023-05-18T07:44:23.253Z,94772.00
2023-05-18T07:46:50.074Z,94758.13
2023-05-18T07:49:16.841Z,94763.09
2023-05-18T07:51:43.547Z,94770.84
2023-05-18T07:54:10.290Z,94770.41
2023-05-18T07:56:37.004Z,94768.41
2023-05-18T07:59:03.737Z,94762.56
2023-05-18T08:01:32.180Z,94767.94
2023-05-18T08:03:59.050Z,94763.31
2023-05-18T08:06:26.176Z,94762.06
2023-05-18T08:08:52.906Z,94764.34
2023-05-18T08:11:19.641Z,94773.41
2023-05-18T08:13:46.442Z,94760.84
2023-05-18T08:16:13.388Z,94763.88
2023-05-18T08:18:41.029Z,94753.78
2023-05-18T08:21:09.900Z,94764.81
2023-05-18T08:23:37.582Z,94768.16
2023-05-18T08:26:04.582Z,94769.81
2023-05-18T08:28:32.076Z,94749.44
2023-05-18T08:30:58.783Z,94763.41
2023-05-18T08:33:25.950Z,94759.72
2023-05-18T08:35:52.733Z,94768.94
2023-05-18T08:38:19.487Z,94766.22
2023-05-18T08:40:58.449Z,94769.69
2023-05-18T08:43:33.213Z,94761.94
2023-05-18T08:46:13.699Z,94753.16
2023-05-18T08:48:46.812Z,94765.97
2023-05-18T08:51:19.831Z,94766.47
2023-05-18T08:53:53.597Z,94747.97
2023-05-18T08:56:24.821Z,94754.47
2023-05-18T08:58:55.659Z,94733.13
2023-05-18T09:01:28.462Z,94755.94
2023-05-18T09:03:57.410Z,94752.47
2023-05-18T09:06:24.942Z,94743.00
2023-05-18T09:08:53.735Z,94746.63
2023-05-18T09:11:25.262Z,94749.00
2023-05-18T09:13:52.113Z,94740.06
2023-05-18T09:16:19.208Z,94766.34
2023-05-18T09:18:46.142Z,94769.59
2023-05-18T09:21:12.952Z,94756.94
2023-05-18T09:23:41.555Z,94754.59
2023-05-18T09:26:11.531Z,94758.94
2023-05-18T09:28:39.602Z,94755.97
2023-05-18T09:31:09.126Z,94745.50
2023-05-18T09:33:37.753Z,94753.09
2023-05-18T09:36:06.548Z,94748.97
2023-05-18T09:38:45.871Z,94744.31
2023-05-18T09:41:15.200Z,94743.22
2023-05-18T09:43:43.863Z,94744.94
2023-05-18T09:46:12.066Z,94750.53
2023-05-18T09:48:45.997Z,94737.19
2023-05-18T09:51:16.596Z,94745.09
2023-05-18T09:53:54.495Z,94740.31
2023-05-18T09:56:23.200Z,94726.63
2023-05-18T09:58:50.028Z,94725.84
2023-05-18T10:01:16.817Z,94733.66
2023-05-18T10:03:45.684Z,94705.66
2023-05-18T10:06:17.342Z,94714.69
2023-05-18T10:08:45.556Z,94727.47
2023-05-18T10:11:12.647Z,94717.44
2023-05-18T10:13:39.528Z,94725.03
2023-05-18T10:16:08.294Z,94723.63
2023-05-18T10:18:37.586Z,94730.84
2023-05-18T10:21:09.619Z,94728.91
2023-05-18T10:23:36.978Z,94729.22
2023-05-18T10:26:07.838Z,94732.38
2023-05-18T10:28:47.463Z,94730.97
2023-05-18T10:31:16.761Z,94746.34
2023-05-18T10:33:44.598Z,94730.69
2023-05-18T10:36:13.021Z,94736.97
2023-05-18T10:38:43.521Z,94727.66
2023-05-18T10:41:12.354Z,94731.06
2023-05-18T10:43:41.530Z,94723.03
2023-05-18T10:46:09.525Z,94712.16
2023-05-18T10:48:40.482Z,94726.25
2023-05-18T10:51:08.098Z,94720.59
2023-05-18T10:53:36.560Z,94711.41
2023-05-18T10:56:03.826Z,94722.59
2023-05-18T10:58:32.565Z,94715.34
2023-05-18T11:01:01.407Z,94717.34
2023-05-18T11:03:28.708Z,94714.34
2023-05-18T11:06:12.655Z,94722.41
2023-05-18T11:08:58.487Z,94718.50
2023-05-18T11:11:30.298Z,94718.31
2023-05-18T11:14:02.367Z,94715.38
2023-05-18T11:16:33.793Z,94713.94
2023-05-18T11:19:07.206Z,94725.03
2023-05-18T11:21:36.988Z,94713.47
2023-05-18T11:24:29.808Z,94717.56
2023-05-18T11:27:03.337Z,94718.34
2023-05-18T11:29:36.477Z,94724.81
2023-05-18T11:32:04.911Z,94720.63
2023-05-18T11:34:50.858Z,94723.47
2023-05-18T11:37:38.589Z,94731.16
2023-05-18T11:40:09.357Z,94705.22
2023-05-18T11:42:38.001Z,94703.97
2023-05-18T11:45:12.719Z,94709.44
2023-05-18T11:47:42.981Z,94719.09
2023-05-18T11:50:14.916Z,94731.06
2023-05-18T11:52:45.966Z,94719.13
2023-05-18T11:55:15.122Z,94706.09
2023-05-18T11:57:47.847Z,94724.03
2023-05-18T12:00:16.179Z,94716.00
2023-05-18T12:02:47.995Z,94692.69
2023-05-18T12:05:14.876Z,94714.50
2023-05-18T12:07:42.469Z,94703.06
2023-05-18T12:10:17.292Z,94700.44
2023-05-18T12:12:57.150Z,94710.59
2023-05-18T12:15:25.075Z,94700.00
2023-05-18T12:17:52.099Z,94711.06
2023-05-18T12:20:20.741Z,94713.75
2023-05-18T12:22:53.242Z,94708.38
2023-05-18T12:25:25.751Z,94709.94
2023-05-18T12:27:54.675Z,94703.41
2023-05-18T12:30:23.401Z,94693.78
2023-05-18T12:32:55.505Z,94705.28
2023-05-18T12:35:26.350Z,94704.88
2023-05-18T12:38:01.499Z,94701.94
2023-05-18T12:40:38.773Z,94703.69
2023-05-18T12:43:05.658Z,94703.75
2023-05-18T12:45:34.346Z,94694.47
2023-05-18T12:48:09.398Z,94702.34
2023-05-18T12:50:37.347Z,94691.63
2023-05-18T12:53:04.350Z,94693.13
2023-05-18T12:55:32.372Z,94693.09
2023-05-18T12:58:03.494Z,94704.56
2023-05-18T13:00:34.837Z,94692.69
2023-05-18T13:03:12.802Z,94688.34
2023-05-18T13:05:42.661Z,94697.38
2023-05-18T13:08:13.477Z,94699.50
2023-05-18T13:10:44.195Z,94698.44
2023-05-18T13:13:11.102Z,94697.25
2023-05-18T13:15:38.410Z,94692.69
2023-05-18T13:18:09.978Z,94696.97
2023-05-18T13:20:50.968Z,94699.31
2023-05-18T13:23:20.026Z,94692.88
2023-05-18T13:25:47.503Z,94688.34
2023-05-18T13:28:16.470Z,94700.69
2023-05-18T13:30:44.337Z,94700.81
2023-05-18T13:33:12.327Z,94695.25
2023-05-18T13:35:42.140Z,94695.75
2023-05-18T13:38:13.327Z,94700.38
2023-05-18T13:40:41.421Z,94681.59
2023-05-18T13:43:09.480Z,94689.13
2023-05-18T13:45:38.270Z,94679.81
2023-05-18T13:48:09.600Z,94681.06
2023-05-18T13:50:36.917Z,94684.13
2023-05-18T13:53:03.796Z,94669.59
2023-05-18T13:55:30.829Z,94675.72
2023-05-18T13:57:57.885Z,94679.56
2023-05-18T14:00:24.861Z,94681.09
2023-05-18T14:02:53.209Z,94668.13
2023-05-18T14:05:20.544Z,94673.09
2023-05-18T14:07:47.231Z,94674.97
2023-05-18T14:10:14.133Z,94656.09
2023-05-18T14:12:44.238Z,94657.34
2023-05-18T14:15:12.043Z,94665.34
2023-05-18T14:17:38.782Z,94659.31
2023-05-18T14:20:06.718Z,94655.22
2023-05-18T14:22:35.330Z,94675.97
2023-05-18T14:25:02.179Z,94667.09
2023-05-18T14:27:29.140Z,94657.41
2023-05-18T14:29:56.256Z,94665.31
2023-05-18T14:32:23.153Z,94657.09
2023-05-18T14:34:55.576Z,94658.13
2023-05-18T14:37:22.530Z,94657.41
2023-05-18T14:39:49.289Z,94649.16
2023-05-18T14:42:16.230Z,94655.94
2023-05-18T14:44:43.010Z,94649.59
2023-05-18T14:47:10.657Z,94645.63
2023-05-18T14:49:38.115Z,94649.13
2023-05-18T14:52:05.342Z,94647.53
2023-05-18T14:54:32.038Z,94664.53
2023-05-18T14:56:59.684Z,94663.59
2023-05-18T14:59:26.466Z,94652.06
2023-05-18T15:01:53.331Z,94664.97
2023-05-18T15:04:21.987Z,94652.00
2023-05-18T15:06:49.807Z,94662.47
2023-05-18T15:09:17.293Z,94664.53
2023-05-18T15:11:43.941Z,94663.94
2023-05-18T15:14:10.709Z,94668.63
2023-05-18T15:16:37.614Z,94663.94
2023-05-18T15:19:05.238Z,94672.72
2023-05-18T15:21:32.033Z,94669.47
2023-05-18T15:23:58.797Z,94675.97
2023-05-18T15:26:26.155Z,94668.75
2023-05-18T15:28:52.959Z,94667.09
2023-05-18T15:31:19.794Z,94671.31
2023-05-18T15:33:47.020Z,94660.81
2023-05-18T15:36:13.747Z,94670.22
2023-05-18T15:38:41.167Z,94670.88
2023-05-18T15:41:07.963Z,94667.03
2023-05-18T15:43:36.593Z,94661.03
2023-05-18T15:46:03.539Z,94671.25
2023-05-18T15:48:30.747Z,94668.56
2023-05-18T15:50:57.453Z,94658.22
2023-05-18T15:53:24.222Z,94663.94
2023-05-18T15:55:57.535Z,94654.53
2023-05-18T15:58:25.181Z,94658.09
2023-05-18T16:00:51.931Z,94660.47
2023-05-18T16:03:19.280Z,94658.88
2023-05-18T16:05:46.289Z,94647.19
2023-05-18T16:08:13.056Z,94650.09
2023-05-18T16:10:39.870Z,94654.72
2023-05-18T16:13:06.572Z,94645.03
2023-05-18T16:15:34.700Z,94644.78
2023-05-18T16:18:01.843Z,94656.03
2023-05-18T16:20:28.999Z,94657.50
2023-05-18T16:22:56.095Z,94652.09
2023-05-18T16:25:23.540Z,94656.56
2023-05-18T16:27:50.458Z,94652.38
2023-05-18T16:30:17.188Z,94645.34
2023-05-18T16:32:44.595Z,94653.13
2023-05-18T16:35:11.580Z,94651.91
2023-05-18T16:37:38.615Z,94649.44
2023-05-18T16:40:06.096Z,94650.22
2023-05-18T16:42:33.209Z,94643.41
2023-05-18T16:45:00.009Z,94652.28
2023-05-18T16:47:27.769Z,94655.72
2023-05-18T16:49:54.747Z,94655.16
2023-05-18T16:52:21.622Z,94647.41
2023-05-18T16:54:48.441Z,94654.06
2023-05-18T16:57:15.275Z,94658.56
2023-05-18T16:59:42.329Z,94657.22
2023-05-18T17:02:13.259Z,94660.81
2023-05-18T17:04:45.986Z,94662.84
2023-05-18T17:07:13.127Z,94663.97
2023-05-18T17:09:41.717Z,94666.19
2023-05-18T17:12:12.366Z,94667.91
2023-05-18T17:14:39.475Z,94658.59
2023-05-18T17:17:07.005Z,94666.88
2023-05-18T17:19:35.198Z,94668.44
2023-05-18T17:22:03.483Z,94672.94
2023-05-18T17:24:30.656Z,94668.91
2023-05-18T17:26:57.523Z,94675.88
2023-05-18T17:29:24.284Z,94669.13
2023-05-18T17:31:51.033Z,94677.88
2023-05-18T17:34:17.783Z,94678.78
2023-05-18T17:36:45.476Z,94677.41
2023-05-18T17:39:12.669Z,94680.78
2023-05-18T17:41:39.423Z,94683.72
2023-05-18T17:44:06.280Z,94674.50
2023-05-18T17:46:33.112Z,94679.53
2023-05-18T17:49:02.127Z,94685.50
2023-05-18T17:51:28.913Z,94681.78
2023-05-18T17:53:56.707Z,94689.53
2023-05-18T17:56:24.910Z,94688.06
2023-05-18T17:58:53.279Z,94676.28
2023-05-18T18:01:20.572Z,94685.25
2023-05-18T18:03:48.883Z,94680.53
2023-05-18T18:06:17.729Z,94686.38
2023-05-18T18:08:45.061Z,94677.41
2023-05-18T18:11:11.853Z,94690.41
2023-05-18T18:13:38.552Z,94683.13
2023-05-18T18:16:05.977Z,94681.78
2023-05-18T18:18:32.926Z,94695.78
2023-05-18T18:20:59.741Z,94690.66
2023-05-18T18:23:26.443Z,94692.22
2023-05-18T18:25:53.189Z,94690.53
2023-05-18T18:28:20.000Z,94695.34
2023-05-18T18:30:47.258Z,94692.41
2023-05-18T18:33:16.807Z,94698.56
2023-05-18T18:35:43.656Z,94693.75
2023-05-18T18:38:10.926Z,94687.56
2023-05-18T18:40:37.588Z,94696.09
2023-05-18T18:43:04.325Z,94691.25
2023-05-18T18:45:32.146Z,94709.66
2023-05-18T18:47:59.793Z,94695.84
2023-05-18T18:50:27.310Z,94704.69
2023-05-18T18:52:53.988Z,94704.00
2023-05-18T18:55:21.184Z,94710.19
2023-05-18T18:57:47.922Z,94702.00
2023-05-18T19:00:15.044Z,94702.22
2023-05-18T19:02:41.815Z,94699.97
2023-05-18T19:05:09.506Z,94704.78
2023-05-18T19:07:36.654Z,94716.78
2023-05-18T19:10:04.559Z,94715.06
2023-05-18T19:12:32.650Z,94713.25
2023-05-18T19:14:59.483Z,94727.28
2023-05-18T19:17:26.781Z,94711.56
2023-05-18T19:19:53.632Z,94721.06
2023-05-18T19:22:20.322Z,94719.81
2023-05-18T19:24:47.146Z,94715.56
2023-05-18T19:27:13.856Z,94719.81
2023-05-18T19:29:40.550Z,94732.34
2023-05-18T19:32:07.498Z,94729.06
2023-05-18T19:34:34.334Z,94722.91
2023-05-18T19:37:01.038Z,94730.97
2023-05-18T19:39:27.800Z,94728.75
2023-05-18T19:41:54.508Z,94732.69
2023-05-18T19:44:21.798Z,94729.06
2023-05-18T19:46:48.518Z,94727.81
2023-05-18T19:49:15.218Z,94739.69
2023-05-18T19:51:41.869Z,94731.53
2023-05-18T19:54:08.558Z,94728.22
2023-05-18T19:56:36.424Z,94734.25
2023-05-18T19:59:03.241Z,94747.38
2023-05-18T20:01:30.143Z,94740.28
2023-05-18T20:03:59.223Z,94743.75
2023-05-18T20:06:28.182Z,94747.38
2023-05-18T20:08:54.955Z,94735.69
2023-05-18T20:11:21.671Z,94738.22
2023-05-18T20:13:48.420Z,94741.41
2023-05-18T20:16:15.256Z,94744.25
2023-05-18T20:18:42.074Z,94743.03
2023-05-18T20:21:09.595Z,94737.50
2023-05-18T20:23:36.357Z,94739.88
2023-05-18T20:26:03.164Z,94734.81
2023-05-18T20:28:31.565Z,94738.28
2023-05-18T20:30:59.196Z,94736.72
2023-05-18T20:33:26.577Z,94746.53
2023-05-18T20:35:53.759Z,94748.31
2023-05-18T20:38:20.608Z,94747.97
2023-05-18T20:40:51.381Z,94743.72
2023-05-18T20:43:18.305Z,94741.50
2023-05-18T20:45:49.711Z,94741.50
2023-05-18T20:48:25.048Z,94745.09
2023-05-18T20:50:52.409Z,94744.66
2023-05-18T20:53:19.908Z,94735.47
2023-05-18T20:55:48.220Z,94739.44
2023-05-18T20:58:18.696Z,94740.41
2023-05-18T21:00:46.772Z,94744.69
2023-05-18T21:03:15.078Z,94746.25
2023-05-18T21:05:43.309Z,94739.91
2023-05-18T21:08:10.568Z,94739.59
2023-05-18T21:10:37.818Z,94738.81
2023-05-18T21:13:04.472Z,94743.25
2023-05-18T21:15:36.455Z,94737.28
2023-05-18T21:18:03.909Z,94735.38
2023-05-18T21:20:31.188Z,94728.09
2023-05-18T21:22:58.160Z,94734.91
2023-05-18T21:25:25.259Z,94732.59
2023-05-18T21:27:51.916Z,94729.16
2023-05-18T21:30:18.673Z,94729.06
2023-05-18T21:32:45.429Z,94727.59
2023-05-18T21:35:12.282Z,94739.00
2023-05-18T21:37:39.012Z,94728.91
2023-05-18T21:40:06.810Z,94728.28
2023-05-18T21:42:33.471Z,94727.00
2023-05-18T21:45:00.375Z,94725.44
2023-05-18T21:47:27.085Z,94721.31
2023-05-18T21:49:53.942Z,94728.91
2023-05-18T21:52:20.713Z,94732.72
2023-05-18T21:54:47.388Z,94721.50
2023-05-18T21:57:14.083Z,94729.84
2023-05-18T21:59:40.850Z,94730.50
2023-05-18T22:02:07.521Z,94726.88
2023-05-18T22:04:34.399Z,94730.34
2023-05-18T22:07:01.263Z,94731.63
2023-05-18T22:09:28.008Z,94737.31
2023-05-18T22:11:54.821Z,94731.00
2023-05-18T22:14:21.740Z,94726.75
2023-05-18T22:16:48.682Z,94721.84
2023-05-18T22:19:15.686Z,94725.63
2023-05-18T22:21:43.057Z,94732.13
2023-05-18T22:24:09.711Z,94727.44
2023-05-18T22:26:36.486Z,94722.69
2023-05-18T22:29:03.568Z,94729.81
2023-05-18T22:31:30.525Z,94725.56
2023-05-18T22:33:57.383Z,94729.31
2023-05-18T22:36:24.355Z,94723.47
2023-05-18T22:38:52.385Z,94711.81
2023-05-18T22:41:19.202Z,94717.50
2023-05-18T22:43:46.113Z,94719.41
2023-05-18T22:46:12.957Z,94717.81
2023-05-18T22:48:40.249Z,94716.72
2023-05-18T22:51:07.128Z,94714.50
2023-05-18T22:53:33.966Z,94719.09
2023-05-18T22:56:01.010Z,94719.72
2023-05-18T22:58:27.750Z,94717.38
2023-05-18T23:00:54.587Z,94726.22
2023-05-18T23:03:21.520Z,94721.38
2023-05-18T23:05:49.811Z,94715.53
2023-05-18T23:08:16.707Z,94714.75
2023-05-18T23:10:44.520Z,94711.75
2023-05-18T23:13:12.098Z,94727.06
2023-05-18T23:15:41.545Z,94712.72
2023-05-18T23:18:09.125Z,94718.28
2023-05-18T23:20:36.246Z,94719.84
2023-05-18T23:23:03.030Z,94720.16
2023-05-18T23:25:30.071Z,94714.03
2023-05-18T23:27:56.958Z,94714.97
2023-05-18T23:30:23.795Z,94718.63
2023-05-18T23:32:50.958Z,94724.31
2023-05-18T23:35:18.367Z,94724.00
2023-05-18T23:37:49.076Z,94724.78
2023-05-18T23:40:18.270Z,94722.28
2023-05-18T23:42:45.414Z,94725.09
2023-05-18T23:45:12.861Z,94726.06
2023-05-18T23:47:39.835Z,94719.75
2023-05-18T23:50:07.372Z,94714.84
2023-05-18T23:52:34.801Z,94718.47
2023-05-18T23:55:04.223Z,94720.69
2023-05-18T23:57:31.656Z,94711.06
2023-05-18T23:59:58.707Z,94712.66
